FOOG

Port Gentil Airport

Port Gentil, Gabon
METAR FOOG 231400Z 20010KT 9999 SCT011 FEW020CB 30/26 Q1011
Observed Flight Rules
May-23 @ 14:00 UTC (an hour ago) Visual Flight Rules
Wind Visibility Clouds
200° at 10 knots 10,000+ meters
  • Scattered at 1,100' AGL
  • Few at 2,000' AGL
Temperatures Readings
Current 30°C / 86°F
Dewpoint 26°C / 79°F
Humidity 79%
Altimeter 29.85" Hg
Pressure 1011 hPa
Elevation 4
METAR FOOG 231400Z 20010KT 9999 SCT011 FEW020CB 30/26 Q1011
Observed Flight Rules
May-23 @ 14:00 UTC
(an hour ago)
VFR
Wind Visibility
200° at 10 knots 10,000+ meters
Clouds
  • Scattered at 1,100' AGL
  • Few at 2,000' AGL
Temperature Dewpoint
30°C / 86°F 26°C / 79°F
Humidity Altimeter Pressure
79% 29.85" Hg 1011 hPa